Time;durP1;ratioP1;P1;durP2;ratioP2;P2;SDS_P1;SDS_P2;PMS_P1;PMS_P2;Temp;Humidity;BMP_temperature;BMP_pressure;BME280_temperature;BME280_humidity;BME280_pressure;Samples;Min_cycle;Max_cycle;Signal;HPM_P1;HPM_P2
2022/11/13 00:01:20;;;;;;;61.35;31.82;;;;;;;8.58;96.14;100714.22;1815802;79;20955;-47
2022/11/13 00:03:47;;;;;;;60.10;31.35;;;;;;;8.60;95.75;100715.05;1815711;79;21465;-47
2022/11/13 00:06:14;;;;;;;54.38;30.00;;;;;;;8.58;96.08;100716.39;1816230;78;20956;-46
2022/11/13 00:08:40;;;;;;;54.53;30.75;;;;;;;8.55;95.95;100712.55;1821285;79;20959;-46
2022/11/13 00:11:17;;;;;;;57.25;30.08;;;;;;;8.55;95.30;100708.63;1821175;79;20979;-46
2022/11/13 00:13:43;;;;;;;49.73;29.07;;;;;;;8.52;95.50;100713.08;1821374;79;20979;-46
2022/11/13 00:16:14;;;;;;;57.00;30.35;;;;;;;8.49;95.99;100707.89;1821323;79;21425;-46
2022/11/13 00:18:40;;;;;;;55.92;29.50;;;;;;;8.51;96.07;100710.88;1821292;79;21029;-46
2022/11/13 00:21:14;;;;;;;57.60;30.75;;;;;;;8.50;96.16;100718.34;1821536;79;21010;-46
2022/11/13 00:23:39;;;;;;;60.48;33.10;;;;;;;8.48;95.71;100711.41;1820295;79;20986;-47
2022/11/13 00:26:15;;;;;;;55.70;31.48;;;;;;;8.51;95.56;100712.65;1821260;79;20979;-47
2022/11/13 00:28:41;;;;;;;63.17;32.38;;;;;;;8.51;95.75;100708.72;1821251;79;21348;-48
2022/11/13 00:31:09;;;;;;;58.00;33.77;;;;;;;8.47;96.19;100707.92;1821496;79;20998;-47
2022/11/13 00:33:35;;;;;;;59.00;31.48;;;;;;;8.45;96.17;100705.34;1821241;79;21643;-48
2022/11/13 00:36:05;;;;;;;54.58;30.10;;;;;;;8.44;96.31;100702.75;1821475;79;20959;-48
2022/11/13 00:38:33;;;;;;;56.63;30.15;;;;;;;8.41;96.06;100708.91;1819451;79;21457;-48
2022/11/13 00:40:59;;;;;;;54.95;30.52;;;;;;;8.38;96.34;100703.73;1821399;79;20999;-49
2022/11/13 00:43:25;;;;;;;51.48;30.10;;;;;;;8.36;96.66;100698.97;1821294;78;21543;-49
2022/11/13 00:45:52;;;;;;;56.90;29.92;;;;;;;8.38;96.78;100695.01;1821361;79;20983;-47
2022/11/13 00:48:18;;;;;;;52.00;29.35;;;;;;;8.39;96.93;100691.50;1821246;79;21014;-47
2022/11/13 00:50:44;;;;;;;56.95;28.90;;;;;;;8.42;96.50;100692.75;1821237;79;20975;-48
2022/11/13 00:53:09;;;;;;;52.78;28.30;;;;;;;8.44;96.44;100686.59;1821244;79;21013;-47
2022/11/13 00:55:35;;;;;;;55.73;28.60;;;;;;;8.44;95.98;100685.28;1821133;79;21487;-47
2022/11/13 00:58:01;;;;;;;54.13;30.00;;;;;;;8.44;95.58;100683.97;1821269;78;20963;-48
2022/11/13 01:00:27;;;;;;;53.38;29.40;;;;;;;8.40;96.16;100683.61;1821228;79;21014;-48
2022/11/13 01:02:52;;;;;;;53.50;29.10;;;;;;;8.38;96.68;100672.27;1821207;79;20951;-49
2022/11/13 01:05:18;;;;;;;53.25;28.47;;;;;;;8.33;96.51;100663.68;1821184;79;20975;-48
2022/11/13 01:07:44;;;;;;;50.38;27.00;;;;;;;8.37;96.49;100669.25;1825910;78;20983;-49
2022/11/13 01:10:09;;;;;;;48.28;28.42;;;;;;;8.38;96.11;100668.34;1828692;78;21017;-47
2022/11/13 01:12:35;;;;;;;46.37;27.27;;;;;;;8.36;95.85;100666.20;1828723;78;21014;-50
2022/11/13 01:15:01;;;;;;;44.35;25.70;;;;;;;8.32;95.72;100668.50;1828704;78;21017;-48
2022/11/13 01:17:27;;;;;;;48.52;26.40;;;;;;;8.22;95.89;100664.36;1828809;78;20978;-50
2022/11/13 01:19:53;;;;;;;46.40;26.30;;;;;;;8.23;95.89;100663.48;1828740;78;20981;-48
2022/11/13 01:22:19;;;;;;;48.17;25.65;;;;;;;8.22;95.89;100660.00;1828711;78;20986;-46
2022/11/13 01:24:44;;;;;;;51.10;27.82;;;;;;;8.20;96.52;100660.92;1828605;78;21046;-47
2022/11/13 01:27:12;;;;;;;48.28;26.00;;;;;;;8.18;96.72;100650.92;1828784;78;21499;-50
2022/11/13 01:29:37;;;;;;;50.05;27.55;;;;;;;8.19;96.57;100654.83;1828918;78;20977;-49
2022/11/13 01:32:04;;;;;;;48.60;26.90;;;;;;;8.23;96.69;100652.99;1828893;78;21010;-47
2022/11/13 01:34:30;;;;;;;49.15;27.87;;;;;;;8.22;96.78;100648.64;1828715;78;21029;-50
2022/11/13 01:36:55;;;;;;;53.60;28.67;;;;;;;8.24;96.66;100658.63;1828766;78;21448;-49
2022/11/13 01:39:21;;;;;;;50.78;29.32;;;;;;;8.23;96.52;100656.92;1828677;78;21518;-48
2022/11/13 01:41:47;;;;;;;50.00;28.12;;;;;;;8.22;96.89;100656.07;1828693;78;20958;-49
2022/11/13 01:44:16;;;;;;;53.92;27.55;;;;;;;8.25;96.47;100653.81;1828651;78;20966;-47
2022/11/13 01:46:55;;;;;;;45.60;27.73;;;;;;;8.24;96.53;100663.87;1828719;78;20977;-50
2022/11/13 01:49:34;;;;;;;48.65;27.32;;;;;;;8.29;96.60;100663.78;1828705;78;21018;-49
2022/11/13 01:52:05;;;;;;;50.12;27.77;;;;;;;8.28;96.35;100660.30;1828706;78;20959;-49
2022/11/13 01:54:42;;;;;;;50.35;26.52;;;;;;;8.29;96.22;100655.91;1825658;78;21025;-47
2022/11/13 01:57:09;;;;;;;53.13;27.75;;;;;;;8.26;96.27;100653.78;1827918;78;21460;-47
2022/11/13 01:59:42;;;;;;;55.73;28.20;;;;;;;8.21;96.02;100658.73;1829050;78;20983;-48
2022/11/13 02:02:08;;;;;;;55.48;29.65;;;;;;;8.18;95.93;100649.61;1828662;78;20967;-47
2022/11/13 02:04:35;;;;;;;52.78;28.65;;;;;;;8.16;96.76;100644.86;1828616;78;20971;-46
2022/11/13 02:07:05;;;;;;;54.90;28.65;;;;;;;8.18;96.62;100641.75;1825923;78;20975;-49
2022/11/13 02:09:36;;;;;;;53.83;28.70;;;;;;;8.17;97.16;100643.52;1815730;79;20986;-46
2022/11/13 02:12:05;;;;;;;58.10;28.77;;;;;;;8.22;97.00;100636.84;1815731;79;20999;-48
2022/11/13 02:14:31;;;;;;;55.15;27.58;;;;;;;8.21;97.02;100632.52;1788655;79;20975;-46
2022/11/13 02:17:05;;;;;;;53.15;28.75;;;;;;;8.21;97.58;100634.68;1816091;79;21425;-48
2022/11/13 02:19:39;;;;;;;58.17;30.62;;;;;;;8.19;97.70;100629.94;1815715;79;20995;-47
2022/11/13 02:22:29;;;;;;;55.38;29.25;;;;;;;8.18;97.61;100629.97;1815646;79;20971;-47
2022/11/13 02:24:57;;;;;;;54.18;29.20;;;;;;;8.15;97.78;100630.91;1815747;79;20983;-48
2022/11/13 02:27:37;;;;;;;50.15;28.05;;;;;;;8.15;98.03;100630.02;1815686;78;20978;-46
2022/11/13 02:30:26;;;;;;;47.13;27.75;;;;;;;8.14;97.89;100625.24;1815767;79;20982;-47
2022/11/13 02:32:54;;;;;;;50.17;27.42;;;;;;;8.15;97.37;100632.22;1815730;79;20987;-49
2022/11/13 02:35:23;;;;;;;;;;;;;;;8.16;97.13;100632.61;1818359;79;20987;-50
2022/11/13 02:37:49;;;;;;;49.13;27.20;;;;;;;8.17;97.07;100633.50;1815693;79;20589;-49
2022/11/13 02:43:07;;;;;;;46.10;25.05;;;;;;;8.12;96.74;100631.43;1711355;81;21171;-49
2022/11/13 02:45:33;;;;;;;51.00;26.30;;;;;;;8.05;96.56;100630.70;1752789;81;21010;-47
2022/11/13 02:48:00;;;;;;;50.05;26.85;;;;;;;8.07;96.64;100632.38;1752763;81;21053;-47
2022/11/13 02:50:26;;;;;;;51.18;26.30;;;;;;;8.06;96.52;100633.30;1752855;81;21006;-46
2022/11/13 02:52:52;;;;;;;44.93;24.72;;;;;;;8.04;96.78;100627.66;1752726;81;20987;-48
2022/11/13 02:55:18;;;;;;;44.77;24.15;;;;;;;8.05;97.12;100635.48;1752897;81;21486;-48
2022/11/13 02:57:44;;;;;;;47.35;24.77;;;;;;;8.03;97.28;100633.36;1752759;81;21495;-46
2022/11/13 03:00:12;;;;;;;41.92;24.05;;;;;;;8.04;96.52;100636.41;1752919;81;21030;-45
2022/11/13 03:02:38;;;;;;;45.90;23.95;;;;;;;8.03;96.84;100637.28;1752715;82;21006;-46
2022/11/13 03:05:05;;;;;;;40.78;22.95;;;;;;;8.05;96.91;100639.41;1752653;81;21148;-48
2022/11/13 03:07:30;;;;;;;44.73;23.70;;;;;;;8.07;96.71;100638.92;1753060;81;21039;-46
2022/11/13 03:09:56;;;;;;;42.15;24.07;;;;;;;8.05;96.89;100640.72;1752796;81;21002;-47
2022/11/13 03:12:22;;;;;;;42.90;24.20;;;;;;;8.05;96.85;100642.03;1752776;82;21002;-46
2022/11/13 03:14:48;;;;;;;43.68;24.18;;;;;;;8.02;97.25;100644.75;1752803;82;21006;-53
2022/11/13 03:17:14;;;;;;;44.93;24.23;;;;;;;8.01;97.31;100652.19;1752780;81;21500;-49
2022/11/13 03:19:40;;;;;;;45.78;26.23;;;;;;;8.02;97.41;100648.68;1752688;81;20995;-47
2022/11/13 03:22:05;;;;;;;47.88;26.17;;;;;;;8.01;97.31;100639.08;1752689;81;21042;-49
2022/11/13 03:24:31;;;;;;;52.83;26.35;;;;;;;8.02;96.99;100647.37;1752734;82;21002;-49
2022/11/13 03:26:57;;;;;;;49.20;25.60;;;;;;;8.02;97.26;100643.44;1752749;81;21046;-45
2022/11/13 03:29:23;;;;;;;50.35;24.20;;;;;;;8.03;97.71;100633.81;1752770;81;20976;-46
2022/11/13 03:31:48;;;;;;;44.00;24.10;;;;;;;8.00;97.69;100633.41;1752731;81;20975;-48
2022/11/13 03:34:14;;;;;;;47.48;24.85;;;;;;;8.04;97.04;100636.41;1752724;81;21002;-51
2022/11/13 03:36:40;;;;;;;44.83;24.75;;;;;;;8.03;97.18;100643.83;1752840;82;21046;-49
2022/11/13 03:39:06;;;;;;;48.78;26.12;;;;;;;8.05;96.75;100642.49;1752826;81;21511;-49
2022/11/13 03:41:31;;;;;;;45.90;24.30;;;;;;;8.02;96.76;100646.48;1751296;81;21489;-46
2022/11/13 03:43:57;;;;;;;42.83;23.85;;;;;;;8.00;96.76;100642.58;1742697;82;20987;-46
2022/11/13 03:46:23;;;;;;;48.90;23.57;;;;;;;7.95;97.23;100635.73;1742722;82;21473;-48
2022/11/13 03:48:49;;;;;;;41.60;23.10;;;;;;;7.95;97.37;100636.62;1742885;81;20999;-47
2022/11/13 03:51:14;;;;;;;38.85;23.18;;;;;;;7.92;97.38;100635.37;1742891;82;21354;-47
2022/11/13 03:53:41;;;;;;;42.35;23.20;;;;;;;7.94;97.21;100632.27;1742811;82;20971;-47
2022/11/13 03:56:07;;;;;;;40.92;23.47;;;;;;;7.92;97.50;100630.13;1742800;82;20983;-49
2022/11/13 03:58:32;;;;;;;40.58;22.98;;;;;;;7.91;97.46;100623.16;1742811;81;20994;-48
2022/11/13 04:00:58;;;;;;;40.35;23.25;;;;;;;7.92;97.38;100627.51;1742786;82;21042;-46
2022/11/13 04:03:24;;;;;;;40.43;23.98;;;;;;;7.93;97.69;100629.25;1742709;82;21007;-49
2022/11/13 04:05:50;;;;;;;44.60;24.57;;;;;;;7.90;97.69;100624.53;1742920;81;21002;-47
2022/11/13 04:08:17;;;;;;;43.38;23.70;;;;;;;7.90;97.88;100621.91;1742874;82;21512;-46
2022/11/13 04:10:44;;;;;;;41.70;24.03;;;;;;;7.88;97.91;100621.94;1743111;82;21050;-46
2022/11/13 04:13:10;;;;;;;37.73;22.48;;;;;;;7.88;98.08;100624.55;1743037;81;20979;-46
2022/11/13 04:15:36;;;;;;;40.15;21.90;;;;;;;7.86;97.84;100623.73;1742810;82;21042;-46
2022/11/13 04:18:02;;;;;;;36.93;21.33;;;;;;;7.88;97.73;100627.17;1742779;81;21475;-46
2022/11/13 04:20:28;;;;;;;41.37;22.75;;;;;;;7.87;98.06;100622.36;1742791;82;20988;-46
2022/11/13 04:22:56;;;;;;;39.78;21.25;;;;;;;7.89;97.85;100615.78;1742936;82;21011;-46
2022/11/13 04:25:23;;;;;;;40.28;22.13;;;;;;;7.89;98.06;100621.02;1742931;82;21480;-46
2022/11/13 04:27:50;;;;;;;39.13;21.10;;;;;;;7.91;98.00;100616.61;1742927;81;21043;-46
2022/11/13 04:30:16;;;;;;;42.88;22.93;;;;;;;7.94;98.00;100619.62;1742904;82;21467;-49
2022/11/13 04:32:42;;;;;;;37.95;21.70;;;;;;;7.93;97.90;100614.84;1743039;81;21035;-47
2022/11/13 04:35:09;;;;;;;41.58;21.87;;;;;;;7.94;98.15;100610.45;1742892;81;21526;-48
2022/11/13 04:37:35;;;;;;;47.60;22.80;;;;;;;7.95;97.88;100614.35;1746257;82;20979;-48
2022/11/13 04:40:02;;;;;;;38.00;21.75;;;;;;;7.95;97.86;100620.02;1742761;82;21011;-47
2022/11/13 04:45:12;;;;;;;39.35;22.70;;;;;;;7.95;98.38;100620.91;1733055;83;21031;-46
2022/11/13 04:47:37;;;;;;;42.78;22.62;;;;;;;7.95;98.08;100620.02;1734495;82;21044;-49
2022/11/13 04:50:04;;;;;;;38.92;22.95;;;;;;;7.92;97.84;100617.03;1735563;82;21003;-49
2022/11/13 04:52:30;;;;;;;44.40;23.62;;;;;;;7.92;97.93;100611.80;1735927;82;21047;-47
2022/11/13 04:54:56;;;;;;;40.17;21.90;;;;;;;7.90;97.99;100614.91;1735702;82;21008;-47
2022/11/13 04:57:22;;;;;;;38.67;22.52;;;;;;;7.91;97.94;100615.30;1735894;82;21038;-48
2022/11/13 04:59:48;;;;;;;38.53;21.00;;;;;;;7.91;98.21;100607.89;1735621;83;21039;-47
2022/11/13 05:02:14;;;;;;;40.88;21.93;;;;;;;7.91;97.90;100606.59;1735856;82;21043;-48
2022/11/13 05:04:39;;;;;;;39.48;22.30;;;;;;;7.89;97.76;100610.55;1735735;82;21469;-47
2022/11/13 05:07:05;;;;;;;42.20;20.95;;;;;;;7.88;98.12;100612.77;1736012;82;21471;-46
2022/11/13 05:09:31;;;;;;;39.10;23.18;;;;;;;7.88;98.07;100607.08;1735721;82;21004;-49
2022/11/13 05:11:57;;;;;;;42.17;23.12;;;;;;;7.91;97.92;100605.27;1735622;82;20995;-47
2022/11/13 05:14:22;;;;;;;40.23;22.93;;;;;;;7.90;97.99;100604.42;1735564;82;20999;-49
2022/11/13 05:16:49;;;;;;;39.95;22.25;;;;;;;7.91;97.84;100604.82;1735629;82;21039;-46
2022/11/13 05:19:15;;;;;;;42.78;23.15;;;;;;;7.94;97.64;100599.98;1735604;83;21040;-49
2022/11/13 05:21:41;;;;;;;42.83;23.20;;;;;;;7.97;97.53;100602.53;1735970;82;21556;-45
2022/11/13 05:24:10;;;;;;;46.42;22.70;;;;;;;8.00;97.25;100601.98;1735700;82;21023;-46
2022/11/13 05:26:38;;;;;;;41.35;23.98;;;;;;;7.99;97.04;100601.59;1735811;82;20999;-46
2022/11/13 05:29:04;;;;;;;44.30;23.77;;;;;;;8.00;96.98;100607.22;1735719;82;21485;-46
2022/11/13 05:31:30;;;;;;;40.52;22.95;;;;;;;7.98;97.01;100609.02;1735739;82;20972;-46
2022/11/13 05:33:56;;;;;;;39.88;22.20;;;;;;;7.96;97.18;100608.66;1735665;82;21000;-46
2022/11/13 05:36:22;;;;;;;44.53;23.50;;;;;;;7.95;97.09;100610.42;1735659;82;21046;-48
2022/11/13 05:38:49;;;;;;;47.47;23.70;;;;;;;7.96;97.19;100608.20;1735927;82;21500;-50
2022/11/13 05:41:19;;;;;;;43.35;23.42;;;;;;;7.95;97.29;100606.92;1735752;82;21003;-49
2022/11/13 05:43:45;;;;;;;41.23;23.18;;;;;;;7.93;97.13;100613.53;1741923;82;20988;-47
2022/11/13 05:46:21;;;;;;;40.73;23.25;;;;;;;7.93;97.25;100608.72;1753037;82;21058;-49
2022/11/13 05:48:53;;;;;;;41.18;22.73;;;;;;;7.96;97.20;100617.82;1752669;82;20994;-48
2022/11/13 05:51:23;;;;;;;44.23;23.80;;;;;;;7.92;97.22;100622.27;1752681;82;21548;-48
2022/11/13 05:53:50;;;;;;;44.67;24.05;;;;;;;7.93;97.32;100620.08;1752665;82;21003;-46
2022/11/13 05:56:26;;;;;;;43.90;24.00;;;;;;;7.93;97.69;100622.70;1752919;82;21042;-47
2022/11/13 05:58:53;;;;;;;43.48;24.37;;;;;;;7.93;97.78;100622.70;1752709;82;21046;-48
2022/11/13 06:01:30;;;;;;;44.77;24.75;;;;;;;7.94;97.42;100621.78;1752634;82;21006;-49
2022/11/13 06:03:58;;;;;;;42.17;24.20;;;;;;;7.94;97.61;100624.41;1752762;82;21422;-49
2022/11/13 06:06:25;;;;;;;44.70;23.62;;;;;;;7.95;97.33;100627.45;1752172;82;21406;-48
2022/11/13 06:08:53;;;;;;;43.98;22.52;;;;;;;7.94;97.87;100627.02;1752935;82;21006;-49
2022/11/13 06:11:22;;;;;;;44.35;24.60;;;;;;;7.95;97.73;100620.91;1752345;82;20975;-48
2022/11/13 06:13:50;;;;;;;49.30;24.25;;;;;;;7.95;98.03;100618.70;1752766;82;21007;-46
2022/11/13 06:16:20;;;;;;;38.98;21.62;;;;;;;7.98;98.08;100626.05;1752954;82;21045;-47
2022/11/13 06:18:47;;;;;;;38.92;20.85;;;;;;;7.98;97.92;100625.20;1752796;82;20990;-46
2022/11/13 06:21:20;;;;;;;33.92;19.45;;;;;;;7.97;97.56;100622.18;1752606;82;21555;-46
2022/11/13 06:23:46;;;;;;;38.58;19.07;;;;;;;7.96;97.41;100625.22;1752829;82;20999;-46
2022/11/13 06:26:19;;;;;;;39.58;19.55;;;;;;;8.01;97.56;100631.22;1752972;82;21042;-47
2022/11/13 06:28:45;;;;;;;37.33;19.55;;;;;;;8.06;97.18;100632.44;1752828;82;21057;-49
2022/11/13 06:31:16;;;;;;;33.50;19.42;;;;;;;8.08;96.90;100630.64;1752763;82;21002;-49
2022/11/13 06:33:42;;;;;;;38.00;19.37;;;;;;;8.10;97.00;100630.16;1751653;82;21022;-46
2022/11/13 06:36:12;;;;;;;34.10;18.98;;;;;;;8.11;96.77;100634.94;1752829;82;20975;-46
2022/11/13 06:38:40;;;;;;;36.05;19.50;;;;;;;8.10;96.35;100628.84;1750496;82;21046;-46
2022/11/13 06:41:07;;;;;;;;;;;;;;;8.12;96.58;100627.50;1755334;82;20987;-46
2022/11/13 06:43:32;;;;;;;33.35;18.82;;;;;;;8.10;96.51;100624.06;1752791;82;20102;-46
2022/11/13 06:46:05;;;;;;;36.17;21.23;;;;;;;8.09;96.35;100631.03;1752356;82;21054;-47
2022/11/13 06:48:32;;;;;;;42.43;20.08;;;;;;;8.12;96.70;100624.88;1752632;82;21042;-47
2022/11/13 06:51:06;;;;;;;43.15;21.02;;;;;;;8.10;96.60;100625.38;1752565;82;20975;-46
2022/11/13 06:53:33;;;;;;;42.08;21.42;;;;;;;8.12;96.66;100628.81;1752672;82;21030;-46
2022/11/13 06:56:00;;;;;;;43.35;22.60;;;;;;;8.14;96.37;100631.80;1752725;82;21467;-46
2022/11/13 06:58:26;;;;;;;37.67;19.65;;;;;;;8.13;96.22;100631.40;1752410;82;21006;-46
2022/11/13 07:00:53;;;;;;;33.35;19.27;;;;;;;8.13;96.07;100625.27;1752820;82;20987;-47
2022/11/13 07:03:22;;;;;;;43.70;21.73;;;;;;;8.12;95.92;100624.88;1752475;82;21003;-46
2022/11/13 07:05:48;;;;;;;36.55;20.55;;;;;;;8.09;95.97;100633.66;1752714;82;21034;-46
2022/11/13 07:08:15;;;;;;;44.38;21.33;;;;;;;8.10;95.89;100635.85;1752739;81;21006;-46
2022/11/13 07:10:42;;;;;;;39.73;21.27;;;;;;;8.12;96.19;100624.88;1752584;81;21497;-47
2022/11/13 07:13:09;;;;;;;40.85;21.57;;;;;;;8.12;96.33;100632.28;1752696;82;20994;-46
2022/11/13 07:15:38;;;;;;;32.73;18.82;;;;;;;8.12;96.14;100628.81;1752604;82;20979;-46
2022/11/13 07:18:05;;;;;;;36.93;19.87;;;;;;;8.14;95.91;100638.80;1752505;82;20999;-46
2022/11/13 07:20:31;;;;;;;;;;;;;;;8.15;95.56;100635.27;1755507;82;20975;-48
2022/11/13 07:23:01;;;;;;;46.10;23.75;;;;;;;8.16;95.35;100636.55;1752712;82;20533;-46
2022/11/13 07:25:28;;;;;;;38.75;21.02;;;;;;;8.21;95.25;100637.77;1752814;82;21578;-46
2022/11/13 07:27:54;;;;;;;31.25;16.93;;;;;;;8.21;94.77;100639.07;1753186;81;21002;-46
2022/11/13 07:30:20;;;;;;;35.25;19.17;;;;;;;8.21;94.63;100646.94;1752904;82;21034;-48
2022/11/13 07:32:46;;;;;;;33.75;17.32;;;;;;;8.20;94.35;100642.11;1752919;82;20987;-46
2022/11/13 07:35:13;;;;;;;28.57;15.65;;;;;;;8.23;94.64;100644.67;1752092;82;21003;-46
2022/11/13 07:37:39;;;;;;;26.00;13.95;;;;;;;8.27;94.66;100647.63;1752513;82;21006;-46
2022/11/13 07:40:06;;;;;;;29.32;15.35;;;;;;;8.27;94.66;100650.25;1752930;82;21003;-46
2022/11/13 07:42:32;;;;;;;22.80;14.68;;;;;;;8.30;94.30;100653.27;1751482;82;21007;-47
2022/11/13 07:44:57;;;;;;;33.38;17.52;;;;;;;8.33;94.31;100652.31;1733237;83;21505;-48
2022/11/13 07:47:24;;;;;;;28.77;15.85;;;;;;;8.35;94.14;100652.70;1733212;83;21489;-45
2022/11/13 07:49:49;;;;;;;30.72;15.53;;;;;;;8.36;94.00;100650.48;1733209;83;21472;-48
2022/11/13 07:52:15;;;;;;;33.95;17.67;;;;;;;8.38;93.85;100647.37;1732888;82;20964;-48
2022/11/13 07:54:41;;;;;;;29.10;16.82;;;;;;;8.42;93.64;100650.81;1733102;83;21008;-49
2022/11/13 07:57:07;;;;;;;29.30;16.93;;;;;;;8.42;93.67;100648.19;1733129;82;20988;-47
2022/11/13 07:59:33;;;;;;;30.92;16.27;;;;;;;8.41;93.23;100647.30;1733303;82;21003;-47
2022/11/13 08:01:59;;;;;;;29.18;17.15;;;;;;;8.43;93.03;100650.77;1733122;82;21047;-46
2022/11/13 08:04:25;;;;;;;31.10;17.87;;;;;;;8.40;92.88;100652.15;1733103;83;20996;-47
2022/11/13 08:06:51;;;;;;;32.10;17.02;;;;;;;8.32;92.50;100644.91;1733134;82;21482;-47
2022/11/13 08:09:17;;;;;;;30.43;17.07;;;;;;;8.31;92.18;100649.72;1732928;82;21012;-47
2022/11/13 08:11:43;;;;;;;34.27;18.50;;;;;;;8.30;92.35;100648.02;1733120;83;21596;-47
2022/11/13 08:14:10;;;;;;;37.93;18.95;;;;;;;8.33;92.96;100646.64;1733166;82;20992;-47
2022/11/13 08:16:36;;;;;;;42.62;22.37;;;;;;;8.38;92.66;100650.45;1733299;82;21421;-46
2022/11/13 08:19:02;;;;;;;41.70;22.13;;;;;;;8.38;92.66;100650.45;1733129;82;20996;-47
2022/11/13 08:21:28;;;;;;;41.10;21.57;;;;;;;8.43;93.18;100652.09;1733121;82;21034;-47
2022/11/13 08:23:53;;;;;;;45.75;22.67;;;;;;;8.45;92.61;100654.67;1733140;82;21008;-47
2022/11/13 08:26:19;;;;;;;50.23;23.60;;;;;;;8.39;92.29;100654.34;1733135;83;20999;-47
2022/11/13 08:28:45;;;;;;;39.90;20.32;;;;;;;8.39;92.31;100647.80;1733084;83;21040;-47
2022/11/13 08:31:14;;;;;;;36.35;18.87;;;;;;;8.48;92.45;100650.67;1733144;82;20992;-47
2022/11/13 08:33:41;;;;;;;31.23;16.87;;;;;;;8.49;92.05;100643.66;1733183;83;21049;-47
2022/11/13 08:36:09;;;;;;;27.93;16.27;;;;;;;8.45;91.34;100650.28;1733198;83;21034;-47
2022/11/13 08:38:35;;;;;;;;;;;;;;;8.44;91.29;100644.65;1735655;83;21003;-48
2022/11/13 08:41:03;;;;;;;31.68;18.27;;;;;;;8.44;91.43;100649.89;1733073;83;20110;-47
2022/11/13 08:43:30;;;;;;;35.25;18.30;;;;;;;8.45;91.42;100647.66;1736387;82;21490;-47
2022/11/13 08:45:55;;;;;;;40.20;19.25;;;;;;;8.37;90.71;100646.97;1736725;82;21003;-47
2022/11/13 08:48:23;;;;;;;52.05;25.52;;;;;;;8.39;91.50;100646.94;1733079;83;21028;-47
2022/11/13 08:50:55;;;;;;;;;;;;;;;8.38;91.65;100648.68;1735642;83;21537;-46
2022/11/13 08:53:23;;;;;;;38.88;20.88;;;;;;;8.35;91.74;100647.89;1733116;82;20452;-46
2022/11/13 08:55:49;;;;;;;40.05;21.50;;;;;;;8.34;92.11;100648.34;1733088;83;20972;-47
2022/11/13 08:58:15;;;;;;;44.40;23.57;;;;;;;8.41;92.19;100658.25;1733139;82;21172;-46
2022/11/13 09:00:40;;;;;;;43.13;23.18;;;;;;;8.41;91.94;100653.86;1733133;82;21624;-46
2022/11/13 09:03:10;;;;;;;42.05;22.02;;;;;;;8.39;91.86;100658.28;1733159;83;21048;-46
2022/11/13 09:05:36;;;;;;;44.48;21.97;;;;;;;8.30;91.56;100654.58;1732966;83;20976;-47
2022/11/13 09:08:02;;;;;;;43.00;21.52;;;;;;;8.28;91.48;100657.68;1733043;83;21007;-45
2022/11/13 09:10:28;;;;;;;39.05;20.92;;;;;;;8.25;91.78;100661.67;1733012;83;20996;-46
2022/11/13 09:13:03;;;;;;;42.20;20.50;;;;;;;8.23;91.99;100652.99;1733099;82;21000;-47
2022/11/13 09:15:31;;;;;;;39.35;21.00;;;;;;;8.15;91.80;100652.30;1733057;82;20976;-49
2022/11/13 09:17:58;;;;;;;43.38;21.60;;;;;;;8.15;91.88;100644.02;1733168;83;21056;-47
2022/11/13 09:20:25;;;;;;;47.45;22.73;;;;;;;8.22;92.33;100642.09;1733285;82;21035;-47
2022/11/13 09:23:03;;;;;;;41.60;21.17;;;;;;;8.24;91.97;100646.41;1733298;82;21003;-46
2022/11/13 09:25:32;;;;;;;43.33;20.52;;;;;;;8.30;92.02;100644.55;1733027;82;21155;-47
2022/11/13 09:28:00;;;;;;;33.13;17.60;;;;;;;8.26;91.52;100644.61;1733169;83;21016;-46
2022/11/13 09:30:27;;;;;;;;;;;;;;;8.25;90.73;100649.88;1735635;83;21043;-48
2022/11/13 09:32:58;;;;;;;26.15;14.68;;;;;;;8.00;90.17;100649.59;1733475;82;20126;-47
2022/11/13 09:35:34;;;;;;;29.65;14.55;;;;;;;8.15;90.51;100641.81;1733029;83;21031;-49
2022/11/13 09:38:10;;;;;;;29.03;14.40;;;;;;;8.15;89.90;100634.84;1733344;83;21003;-47
2022/11/13 09:41:08;;;;;;;31.48;16.73;;;;;;;8.11;89.06;100631.00;1733208;83;20999;-47
2022/11/13 09:43:53;;;;;;;27.77;14.35;;;;;;;8.14;89.40;100634.88;1734185;82;21026;-51
2022/11/13 09:46:39;;;;;;;31.90;16.15;;;;;;;8.15;89.51;100629.60;1737749;82;21023;-48
2022/11/13 09:49:14;;;;;;;35.70;16.80;;;;;;;8.18;89.42;100623.41;1746449;82;20995;-48
2022/11/13 09:51:45;;;;;;;37.70;17.55;;;;;;;8.19;89.46;100618.59;1752833;81;21134;-51
2022/11/13 09:54:13;;;;;;;35.70;17.10;;;;;;;8.20;89.47;100619.84;1752191;82;20975;-47
2022/11/13 09:56:47;;;;;;;37.25;18.12;;;;;;;8.19;89.14;100624.69;1752796;81;21026;-49
2022/11/13 09:59:43;;;;;;;34.00;16.85;;;;;;;8.25;89.32;100618.44;1752827;82;21007;-47
2022/11/13 10:02:39;;;;;;;32.88;17.10;;;;;;;8.30;89.55;100616.56;1752873;82;21460;-47
2022/11/13 10:05:26;;;;;;;45.65;20.70;;;;;;;8.32;89.37;100622.63;1752902;82;21003;-46
2022/11/13 10:08:14;;;;;;;31.50;16.93;;;;;;;8.22;88.15;100614.56;1752789;82;21006;-50
2022/11/13 10:11:00;;;;;;;36.63;17.00;;;;;;;8.11;88.10;100611.36;1752228;81;20967;-46
2022/11/13 10:13:35;;;;;;;34.25;17.57;;;;;;;8.11;88.57;100615.28;1751940;81;21065;-46
2022/11/13 10:16:15;;;;;;;36.88;17.90;;;;;;;8.03;88.55;100612.39;1750903;82;21511;-46
2022/11/13 10:18:44;;;;;;;40.78;19.42;;;;;;;7.90;89.12;100611.43;1751844;82;21522;-47
2022/11/13 10:21:37;;;;;;;40.95;19.45;;;;;;;7.95;90.09;100606.49;1752810;82;20967;-46
2022/11/13 10:24:09;;;;;;;43.87;20.77;;;;;;;7.91;89.53;100605.27;1752757;82;21046;-46
2022/11/13 10:26:35;;;;;;;47.15;22.05;;;;;;;7.87;89.24;100598.79;1751861;81;21003;-47
2022/11/13 10:29:12;;;;;;;51.73;22.45;;;;;;;7.85;89.33;100599.73;1752751;81;21093;-47
2022/11/13 10:31:48;;;;;;;31.20;15.88;;;;;;;7.91;89.86;100593.49;1752928;82;21050;-47
2022/11/13 10:34:15;;;;;;;34.23;14.47;;;;;;;7.86;88.75;100589.69;1752904;81;21003;-46
2022/11/13 10:36:52;;;;;;;26.87;14.13;;;;;;;7.84;89.25;100592.33;1752897;81;21602;-46
2022/11/13 10:39:18;;;;;;;29.70;15.10;;;;;;;7.79;88.88;100590.72;1752829;82;21010;-47
2022/11/13 10:41:51;;;;;;;30.20;15.40;;;;;;;7.67;89.17;100592.70;1752758;82;21046;-48
2022/11/13 10:44:29;;;;;;;30.82;16.25;;;;;;;7.62;88.62;100582.80;1743691;82;21019;-50
2022/11/13 10:47:12;;;;;;;33.50;16.75;;;;;;;7.66;88.92;100579.21;1733023;82;21007;-47
2022/11/13 10:49:37;;;;;;;36.98;17.45;;;;;;;7.65;89.22;100578.78;1732858;82;21461;-47
2022/11/13 10:52:03;;;;;;;30.55;16.37;;;;;;;7.69;89.34;100571.30;1733043;83;21050;-47
2022/11/13 10:54:31;;;;;;;37.53;15.38;;;;;;;7.74;89.33;100572.48;1733145;83;21492;-47
2022/11/13 10:57:05;;;;;;;35.75;17.17;;;;;;;7.74;88.96;100573.80;1732865;82;20984;-51
2022/11/13 10:59:40;;;;;;;31.30;15.55;;;;;;;7.77;88.76;100571.11;1730474;82;21466;-46
2022/11/13 11:02:22;;;;;;;30.75;15.85;;;;;;;7.66;88.54;100573.97;1732937;82;21035;-46
2022/11/13 11:04:48;;;;;;;30.97;16.55;;;;;;;7.73;88.82;100571.20;1732946;82;21540;-47
2022/11/13 11:07:21;;;;;;;39.42;19.48;;;;;;;7.72;89.13;100571.66;1732762;83;21212;-47
2022/11/13 11:09:50;;;;;;;43.48;20.23;;;;;;;7.80;89.58;100570.17;1733109;83;21512;-48
2022/11/13 11:12:19;;;;;;;38.70;19.20;;;;;;;7.84;89.22;100576.63;1733209;82;20999;-49
2022/11/13 11:15:06;;;;;;;39.30;20.20;;;;;;;7.74;88.67;100570.32;1733045;83;20998;-48
2022/11/13 11:17:40;;;;;;;38.17;19.45;;;;;;;7.82;89.06;100568.38;1731162;83;20997;-48
2022/11/13 11:20:23;;;;;;;45.25;21.90;;;;;;;7.78;88.86;100571.51;1732983;83;21028;-50
2022/11/13 11:22:55;;;;;;;41.28;18.73;;;;;;;7.81;89.03;100563.59;1732987;82;21461;-49
2022/11/13 11:25:38;;;;;;;40.15;19.87;;;;;;;7.80;88.54;100566.23;1730526;82;21434;-49
2022/11/13 11:28:27;;;;;;;36.80;19.85;;;;;;;7.83;88.77;100565.72;1733188;82;20984;-46
2022/11/13 11:31:05;;;;;;;35.75;20.20;;;;;;;7.80;88.43;100557.92;1733064;82;21028;-46
2022/11/13 11:33:42;;;;;;;38.92;21.75;;;;;;;7.81;88.62;100570.59;1726403;83;21544;-50